createdAt,value
2019-03-08T00:00:27.029Z,135.00
2019-03-08T00:01:26.967Z,157.50
2019-03-08T00:02:26.956Z,180.00
2019-03-08T00:03:26.925Z,180.00
2019-03-08T00:04:27.038Z,135.00
2019-03-08T00:05:26.969Z,157.50
2019-03-08T00:06:26.975Z,157.50
2019-03-08T00:07:27.030Z,157.50
2019-03-08T00:08:26.959Z,180.00
2019-03-08T00:09:26.974Z,157.50
2019-03-08T00:10:27.036Z,180.00
2019-03-08T00:11:27.090Z,157.50
2019-03-08T00:12:27.064Z,180.00
2019-03-08T00:13:27.033Z,180.00
2019-03-08T00:14:27.051Z,157.50
2019-03-08T00:15:26.962Z,157.50
2019-03-08T00:16:27.073Z,135.00
2019-03-08T00:17:27.045Z,157.50
2019-03-08T00:18:27.028Z,157.50
2019-03-08T00:19:26.950Z,135.00
2019-03-08T00:20:27.028Z,202.50
2019-03-08T00:21:26.963Z,157.50
2019-03-08T00:22:27.039Z,180.00
2019-03-08T00:23:27.032Z,157.50
2019-03-08T00:24:27.033Z,157.50
2019-03-08T00:25:27.000Z,135.00
2019-03-08T00:26:27.049Z,157.50
2019-03-08T00:27:26.975Z,157.50
2019-03-08T00:28:27.046Z,135.00
2019-03-08T00:29:27.005Z,135.00
2019-03-08T00:30:27.056Z,157.50
2019-03-08T00:31:26.934Z,157.50
2019-03-08T00:32:26.988Z,180.00
2019-03-08T00:33:27.061Z,180.00
2019-03-08T00:34:27.004Z,180.00
2019-03-08T00:35:27.062Z,157.50
2019-03-08T00:36:27.049Z,180.00
2019-03-08T00:37:27.053Z,157.50
2019-03-08T00:38:27.059Z,202.50
2019-03-08T00:39:26.984Z,157.50
2019-03-08T00:40:27.056Z,180.00
2019-03-08T00:41:27.014Z,202.50
2019-03-08T00:42:26.983Z,180.00
2019-03-08T00:43:27.057Z,157.50
2019-03-08T00:44:27.053Z,135.00
2019-03-08T00:45:27.061Z,180.00
2019-03-08T00:46:27.058Z,180.00
2019-03-08T00:47:27.058Z,157.50
2019-03-08T00:48:26.988Z,202.50
2019-03-08T00:49:26.990Z,112.50
2019-03-08T00:50:27.065Z,112.50
2019-03-08T00:51:27.066Z,180.00
2019-03-08T00:52:26.994Z,135.00
2019-03-08T00:53:27.014Z,180.00
2019-03-08T00:54:27.129Z,180.00
2019-03-08T00:55:26.993Z,157.50
2019-03-08T00:56:26.998Z,135.00
2019-03-08T00:57:27.065Z,112.50
2019-03-08T00:58:27.079Z,180.00
2019-03-08T00:59:27.061Z,135.00
2019-03-08T01:00:27.010Z,157.50
2019-03-08T01:01:27.077Z,157.50
2019-03-08T01:02:27.069Z,180.00
2019-03-08T01:03:27.078Z,135.00
2019-03-08T01:04:27.002Z,157.50
2019-03-08T01:05:27.031Z,157.50
2019-03-08T01:06:27.082Z,157.50
2019-03-08T01:07:27.000Z,157.50
2019-03-08T01:08:27.071Z,135.00
2019-03-08T01:09:27.020Z,157.50
2019-03-08T01:10:27.052Z,157.50
2019-03-08T01:11:27.088Z,180.00
2019-03-08T01:12:27.014Z,180.00
2019-03-08T01:13:27.005Z,180.00
2019-03-08T01:14:27.010Z,157.50
2019-03-08T01:15:27.025Z,135.00
2019-03-08T01:16:27.098Z,157.50
2019-03-08T01:17:27.080Z,135.00
2019-03-08T01:18:27.015Z,180.00
2019-03-08T01:19:27.088Z,180.00
2019-03-08T01:20:27.084Z,135.00
2019-03-08T01:21:27.022Z,157.50
2019-03-08T01:22:27.082Z,157.50
2019-03-08T01:23:27.045Z,180.00
2019-03-08T01:24:27.026Z,135.00
2019-03-08T01:25:27.088Z,180.00
2019-03-08T01:26:27.083Z,157.50
2019-03-08T01:27:27.014Z,180.00
2019-03-08T01:28:27.090Z,135.00
2019-03-08T01:29:27.096Z,180.00
2019-03-08T01:30:27.017Z,157.50
2019-03-08T01:31:27.092Z,180.00
2019-03-08T01:32:27.094Z,157.50
2019-03-08T01:33:27.024Z,157.50
2019-03-08T01:34:27.103Z,180.00
2019-03-08T01:35:27.094Z,135.00
2019-03-08T01:36:27.097Z,180.00
2019-03-08T01:37:27.031Z,135.00
2019-03-08T01:38:27.023Z,180.00
2019-03-08T01:39:27.097Z,180.00
2019-03-08T01:40:27.676Z,180.00
2019-03-08T01:41:27.026Z,157.50
2019-03-08T01:42:27.040Z,112.50
2019-03-08T01:43:27.099Z,157.50
2019-03-08T01:44:27.195Z,157.50
2019-03-08T01:45:27.025Z,157.50
2019-03-08T01:46:27.097Z,180.00
2019-03-08T01:47:27.110Z,157.50
2019-03-08T01:48:27.105Z,135.00
2019-03-08T01:49:27.103Z,135.00
2019-03-08T01:50:27.051Z,135.00
2019-03-08T01:51:27.033Z,135.00
2019-03-08T01:52:27.098Z,157.50
2019-03-08T01:53:27.044Z,202.50
2019-03-08T01:54:27.106Z,157.50
2019-03-08T01:55:27.056Z,180.00
2019-03-08T01:56:27.107Z,135.00
2019-03-08T01:57:27.044Z,135.00
2019-03-08T01:58:27.109Z,157.50
2019-03-08T01:59:27.111Z,180.00
2019-03-08T02:00:27.069Z,157.50
2019-03-08T02:01:27.053Z,180.00
2019-03-08T02:02:27.110Z,202.50
2019-03-08T02:03:27.125Z,180.00
2019-03-08T02:04:27.040Z,135.00
2019-03-08T02:05:27.122Z,112.50
2019-03-08T02:06:27.118Z,157.50
2019-03-08T02:07:27.062Z,180.00
2019-03-08T02:08:27.045Z,180.00
2019-03-08T02:09:27.141Z,135.00
2019-03-08T02:10:27.121Z,180.00
2019-03-08T02:11:27.120Z,180.00
2019-03-08T02:12:27.113Z,180.00
2019-03-08T02:13:27.050Z,157.50
2019-03-08T02:14:27.052Z,180.00
2019-03-08T02:15:27.154Z,157.50
2019-03-08T02:16:27.127Z,157.50
2019-03-08T02:17:27.120Z,135.00
2019-03-08T02:18:27.040Z,157.50
2019-03-08T02:19:27.114Z,180.00
2019-03-08T02:20:27.116Z,180.00
2019-03-08T02:21:27.053Z,180.00
2019-03-08T02:22:27.113Z,180.00
2019-03-08T02:23:27.056Z,157.50
2019-03-08T02:24:27.116Z,157.50
2019-03-08T02:25:27.046Z,157.50
2019-03-08T02:26:27.055Z,157.50
2019-03-08T02:27:27.118Z,157.50
2019-03-08T02:28:27.138Z,157.50
2019-03-08T02:29:27.138Z,135.00
2019-03-08T02:30:27.146Z,135.00
2019-03-08T02:31:27.071Z,180.00
2019-03-08T02:32:27.065Z,180.00
2019-03-08T02:33:27.082Z,157.50
2019-03-08T02:34:27.067Z,180.00
2019-03-08T02:35:27.137Z,157.50
2019-03-08T02:36:27.135Z,157.50
2019-03-08T02:37:27.165Z,157.50
2019-03-08T02:38:27.078Z,180.00
2019-03-08T02:39:27.136Z,157.50
2019-03-08T02:40:27.147Z,180.00
2019-03-08T02:41:27.147Z,157.50
2019-03-08T02:42:27.068Z,157.50
2019-03-08T02:43:27.142Z,180.00
2019-03-08T02:44:27.070Z,157.50
2019-03-08T02:45:27.200Z,180.00
2019-03-08T02:46:27.154Z,157.50
2019-03-08T02:47:27.158Z,135.00
2019-03-08T02:48:27.135Z,157.50
2019-03-08T02:49:27.119Z,157.50
2019-03-08T02:50:27.153Z,135.00
2019-03-08T02:51:27.161Z,157.50
2019-03-08T02:52:27.148Z,135.00
2019-03-08T02:53:27.153Z,180.00
2019-03-08T02:54:27.066Z,180.00
2019-03-08T02:55:27.146Z,112.50
2019-03-08T02:56:27.103Z,157.50
2019-03-08T02:57:27.101Z,180.00
2019-03-08T02:58:27.088Z,180.00
2019-03-08T02:59:27.086Z,135.00
2019-03-08T03:00:27.094Z,180.00
2019-03-08T03:01:27.094Z,135.00
2019-03-08T03:02:27.156Z,135.00
2019-03-08T03:03:27.084Z,157.50
2019-03-08T03:04:27.118Z,180.00
2019-03-08T03:05:27.158Z,135.00
2019-03-08T03:06:27.088Z,180.00
2019-03-08T03:07:27.164Z,157.50
2019-03-08T03:08:27.161Z,157.50
2019-03-08T03:09:27.115Z,112.50
2019-03-08T03:10:27.159Z,180.00
2019-03-08T03:11:27.108Z,202.50
2019-03-08T03:12:27.170Z,180.00
2019-03-08T03:13:27.163Z,157.50
2019-03-08T03:14:27.106Z,180.00
2019-03-08T03:15:27.164Z,157.50
2019-03-08T03:16:27.105Z,180.00
2019-03-08T03:17:27.161Z,157.50
2019-03-08T03:18:27.180Z,180.00
2019-03-08T03:19:27.227Z,202.50
2019-03-08T03:20:27.168Z,157.50
2019-03-08T03:21:27.165Z,180.00
2019-03-08T03:22:27.182Z,202.50
2019-03-08T03:23:27.052Z,157.50
2019-03-08T03:24:27.180Z,157.50
2019-03-08T03:25:27.199Z,180.00
2019-03-08T03:26:27.173Z,180.00
2019-03-08T03:27:27.114Z,157.50
2019-03-08T03:28:27.167Z,157.50
2019-03-08T03:29:27.099Z,225.00
2019-03-08T03:30:27.166Z,225.00
2019-03-08T03:31:27.131Z,157.50
2019-03-08T03:32:27.255Z,157.50
2019-03-08T03:33:27.170Z,225.00
2019-03-08T03:34:27.176Z,180.00
2019-03-08T03:35:27.100Z,202.50
2019-03-08T03:36:27.169Z,202.50
2019-03-08T03:37:27.100Z,180.00
2019-03-08T03:38:27.109Z,180.00
2019-03-08T03:39:27.112Z,202.50
2019-03-08T03:40:27.108Z,157.50
2019-03-08T03:41:27.225Z,157.50
2019-03-08T03:42:27.186Z,180.00
2019-03-08T03:43:27.187Z,180.00
2019-03-08T03:44:27.181Z,202.50
2019-03-08T03:45:27.133Z,157.50
2019-03-08T03:46:27.187Z,157.50
2019-03-08T03:47:27.143Z,180.00
2019-03-08T03:48:27.127Z,180.00
2019-03-08T03:49:27.193Z,202.50
2019-03-08T03:50:27.122Z,202.50
2019-03-08T03:51:27.189Z,157.50
2019-03-08T03:52:27.200Z,225.00
2019-03-08T03:53:27.158Z,180.00
2019-03-08T03:54:27.191Z,157.50
2019-03-08T03:55:27.200Z,157.50
2019-03-08T03:56:27.124Z,180.00
2019-03-08T03:57:27.193Z,180.00
2019-03-08T03:58:27.122Z,202.50
2019-03-08T03:59:27.122Z,202.50
2019-03-08T04:00:27.201Z,180.00
2019-03-08T04:01:27.122Z,157.50
2019-03-08T04:02:27.201Z,180.00
2019-03-08T04:03:27.135Z,225.00
2019-03-08T04:04:27.189Z,202.50
2019-03-08T04:05:27.140Z,202.50
2019-03-08T04:06:27.223Z,202.50
2019-03-08T04:07:27.210Z,202.50
2019-03-08T04:08:27.136Z,180.00
2019-03-08T04:09:27.199Z,157.50
2019-03-08T04:10:27.142Z,247.50
2019-03-08T04:11:27.207Z,180.00
2019-03-08T04:12:27.131Z,202.50
2019-03-08T04:13:27.209Z,157.50
2019-03-08T04:14:27.207Z,180.00
2019-03-08T04:15:27.150Z,180.00
2019-03-08T04:16:27.206Z,180.00
2019-03-08T04:17:27.214Z,202.50
2019-03-08T04:18:27.207Z,157.50
2019-03-08T04:19:27.126Z,202.50
2019-03-08T04:20:27.143Z,180.00
2019-03-08T04:21:27.200Z,202.50
2019-03-08T04:22:27.200Z,202.50
2019-03-08T04:23:27.145Z,180.00
2019-03-08T04:24:27.201Z,225.00
2019-03-08T04:25:27.202Z,202.50
2019-03-08T04:26:27.133Z,180.00
2019-03-08T04:27:27.205Z,202.50
2019-03-08T04:28:27.285Z,202.50
2019-03-08T04:29:27.147Z,225.00
2019-03-08T04:30:27.164Z,202.50
2019-03-08T04:31:27.224Z,225.00
2019-03-08T04:32:27.234Z,202.50
2019-03-08T04:33:27.163Z,202.50
2019-03-08T04:34:27.159Z,180.00
2019-03-08T04:35:27.220Z,180.00
2019-03-08T04:36:27.289Z,202.50
2019-03-08T04:37:27.221Z,180.00
2019-03-08T04:38:27.230Z,270.00
2019-03-08T04:39:27.219Z,247.50
2019-03-08T04:40:27.156Z,270.00
2019-03-08T04:41:27.233Z,270.00
2019-03-08T04:42:27.155Z,225.00
2019-03-08T04:43:27.231Z,180.00
2019-03-08T04:44:27.227Z,225.00
2019-03-08T04:45:27.231Z,202.50
2019-03-08T04:46:27.245Z,202.50
2019-03-08T04:47:27.161Z,180.00
2019-03-08T04:48:27.228Z,180.00
2019-03-08T04:49:27.234Z,225.00
2019-03-08T04:50:27.161Z,225.00
2019-03-08T04:51:27.176Z,225.00
2019-03-08T04:52:27.232Z,202.50
2019-03-08T04:53:27.239Z,180.00
2019-03-08T04:54:27.170Z,225.00
2019-03-08T04:55:27.167Z,270.00
2019-03-08T04:56:27.241Z,202.50
2019-03-08T04:57:27.228Z,180.00
2019-03-08T04:58:27.241Z,180.00
2019-03-08T04:59:27.174Z,180.00
2019-03-08T05:00:27.184Z,180.00
2019-03-08T05:01:27.182Z,180.00
2019-03-08T05:02:27.249Z,202.50
2019-03-08T05:03:27.241Z,180.00
2019-03-08T05:04:27.257Z,180.00
2019-03-08T05:05:27.171Z,202.50
2019-03-08T05:06:27.187Z,225.00
2019-03-08T05:07:27.174Z,180.00
2019-03-08T05:08:27.270Z,180.00
2019-03-08T05:09:27.252Z,247.50
2019-03-08T05:10:27.245Z,225.00
2019-03-08T05:11:27.210Z,157.50
2019-03-08T05:12:27.259Z,202.50
2019-03-08T05:13:27.248Z,180.00
2019-03-08T05:14:27.249Z,180.00
2019-03-08T05:15:27.179Z,202.50
2019-03-08T05:16:27.342Z,180.00
2019-03-08T05:17:27.259Z,202.50
2019-03-08T05:18:27.252Z,247.50
2019-03-08T05:19:27.238Z,202.50
2019-03-08T05:20:27.230Z,225.00
2019-03-08T05:21:27.243Z,180.00
2019-03-08T05:22:27.233Z,180.00
2019-03-08T05:23:27.128Z,180.00
2019-03-08T05:24:27.147Z,180.00
2019-03-08T05:25:27.137Z,157.50
2019-03-08T05:26:27.171Z,180.00
2019-03-08T05:27:27.181Z,157.50
2019-03-08T05:28:27.159Z,180.00
2019-03-08T05:29:27.257Z,225.00
2019-03-08T05:30:27.182Z,202.50
2019-03-08T05:31:27.248Z,202.50
2019-03-08T05:32:27.170Z,202.50
2019-03-08T05:33:27.179Z,225.00
2019-03-08T05:34:27.252Z,202.50
2019-03-08T05:35:27.190Z,180.00
2019-03-08T05:36:27.252Z,202.50
2019-03-08T05:37:27.256Z,180.00
2019-03-08T05:38:27.261Z,247.50
2019-03-08T05:39:27.194Z,180.00
2019-03-08T05:40:27.190Z,180.00
2019-03-08T05:41:27.195Z,180.00
2019-03-08T05:42:27.208Z,180.00
2019-03-08T05:43:27.278Z,202.50
2019-03-08T05:44:27.199Z,202.50
2019-03-08T05:45:27.214Z,202.50
2019-03-08T05:46:27.211Z,202.50
2019-03-08T05:47:27.199Z,180.00
2019-03-08T05:48:27.213Z,202.50
2019-03-08T05:49:27.186Z,180.00
2019-03-08T05:50:27.264Z,225.00
2019-03-08T05:51:27.264Z,180.00
2019-03-08T05:52:27.262Z,202.50
2019-03-08T05:53:27.197Z,180.00
2019-03-08T05:54:27.197Z,180.00
2019-03-08T05:55:27.266Z,202.50
2019-03-08T05:56:27.202Z,180.00
2019-03-08T05:57:27.267Z,180.00
2019-03-08T05:58:27.200Z,180.00
2019-03-08T05:59:27.194Z,202.50
2019-03-08T06:00:33.358Z,202.50
2019-03-08T06:01:27.202Z,225.00
2019-03-08T06:02:27.175Z,180.00
2019-03-08T06:03:27.182Z,202.50
2019-03-08T06:04:27.194Z,202.50
2019-03-08T06:05:27.287Z,202.50
2019-03-08T06:06:27.295Z,225.00
2019-03-08T06:07:27.159Z,225.00
2019-03-08T06:08:27.155Z,202.50
2019-03-08T06:09:27.216Z,225.00
2019-03-08T06:10:27.220Z,202.50
2019-03-08T06:11:27.225Z,202.50
2019-03-08T06:12:27.216Z,202.50
2019-03-08T06:13:27.346Z,247.50
2019-03-08T06:14:27.230Z,180.00
2019-03-08T06:15:27.290Z,180.00
2019-03-08T06:16:27.231Z,180.00
2019-03-08T06:17:27.233Z,180.00
2019-03-08T06:18:27.316Z,202.50
2019-03-08T06:19:27.281Z,202.50
2019-03-08T06:20:27.165Z,180.00
2019-03-08T06:21:27.163Z,202.50
2019-03-08T06:22:27.270Z,180.00
2019-03-08T06:23:27.221Z,202.50
2019-03-08T06:24:27.276Z,202.50
2019-03-08T06:25:27.218Z,202.50
2019-03-08T06:26:27.233Z,180.00
2019-03-08T06:27:27.277Z,270.00
2019-03-08T06:28:27.289Z,180.00
2019-03-08T06:29:27.301Z,180.00
2019-03-08T06:30:27.301Z,225.00
2019-03-08T06:31:27.301Z,202.50
2019-03-08T06:32:27.219Z,180.00
2019-03-08T06:33:27.329Z,202.50
2019-03-08T06:34:27.250Z,202.50
2019-03-08T06:35:27.303Z,202.50
2019-03-08T06:36:27.306Z,202.50
2019-03-08T06:37:27.251Z,180.00
2019-03-08T06:38:27.309Z,202.50
2019-03-08T06:39:27.303Z,180.00
2019-03-08T06:40:27.228Z,225.00
2019-03-08T06:41:27.338Z,180.00
2019-03-08T06:42:27.247Z,180.00
2019-03-08T06:43:27.300Z,202.50
2019-03-08T06:44:27.302Z,225.00
2019-03-08T06:45:27.237Z,180.00
2019-03-08T06:46:27.301Z,202.50
2019-03-08T06:47:27.225Z,225.00
2019-03-08T06:48:27.305Z,202.50
2019-03-08T06:49:27.310Z,225.00
2019-03-08T06:50:27.263Z,270.00
2019-03-08T06:51:27.285Z,225.00
2019-03-08T06:52:27.316Z,202.50
2019-03-08T06:53:27.324Z,180.00
2019-03-08T06:54:27.261Z,180.00
2019-03-08T06:55:27.259Z,202.50
2019-03-08T06:56:27.316Z,247.50
2019-03-08T06:57:27.318Z,180.00
2019-03-08T06:58:27.255Z,225.00
2019-03-08T06:59:27.299Z,202.50
2019-03-08T07:00:27.218Z,247.50
2019-03-08T07:01:27.300Z,225.00
2019-03-08T07:02:27.306Z,247.50
2019-03-08T07:03:27.385Z,202.50
2019-03-08T07:04:27.313Z,180.00
2019-03-08T07:05:27.307Z,180.00
2019-03-08T07:06:27.316Z,225.00
2019-03-08T07:07:27.280Z,202.50
2019-03-08T07:08:27.197Z,225.00
2019-03-08T07:09:27.226Z,202.50
2019-03-08T07:10:27.334Z,180.00
2019-03-08T07:11:27.276Z,202.50
2019-03-08T07:12:27.262Z,180.00
2019-03-08T07:13:28.147Z,247.50
2019-03-08T07:14:27.334Z,202.50
2019-03-08T07:15:27.347Z,202.50
2019-03-08T07:16:27.335Z,202.50
2019-03-08T07:17:27.306Z,180.00
2019-03-08T07:18:27.363Z,247.50
2019-03-08T07:19:27.214Z,202.50
2019-03-08T07:20:27.327Z,180.00
2019-03-08T07:21:27.205Z,225.00
2019-03-08T07:22:27.323Z,225.00
2019-03-08T07:23:28.209Z,180.00
2019-03-08T07:24:27.298Z,225.00
2019-03-08T07:25:27.327Z,225.00
2019-03-08T07:26:27.324Z,202.50
2019-03-08T07:27:27.325Z,202.50
2019-03-08T07:28:27.321Z,225.00
2019-03-08T07:29:27.317Z,225.00
2019-03-08T07:30:27.298Z,247.50
2019-03-08T07:31:27.240Z,202.50
2019-03-08T07:32:27.362Z,270.00
2019-03-08T07:33:27.234Z,180.00
2019-03-08T07:34:27.249Z,180.00
2019-03-08T07:35:27.237Z,225.00
2019-03-08T07:36:27.236Z,225.00
2019-03-08T07:37:27.307Z,270.00
2019-03-08T07:38:27.333Z,247.50
2019-03-08T07:39:27.265Z,180.00
2019-03-08T07:40:27.254Z,202.50
2019-03-08T07:41:28.865Z,247.50
2019-03-08T07:42:27.265Z,247.50
2019-03-08T07:43:27.274Z,202.50
2019-03-08T07:44:27.340Z,202.50
2019-03-08T07:45:27.258Z,202.50
2019-03-08T07:46:27.275Z,202.50
2019-03-08T07:47:27.346Z,202.50
2019-03-08T07:48:27.306Z,180.00
2019-03-08T07:49:27.356Z,202.50
2019-03-08T07:50:27.286Z,225.00
2019-03-08T07:51:27.355Z,225.00
2019-03-08T07:52:27.357Z,202.50
2019-03-08T07:53:27.365Z,180.00
2019-03-08T07:54:27.360Z,180.00
2019-03-08T07:55:27.287Z,180.00
2019-03-08T07:56:27.302Z,202.50
2019-03-08T07:57:27.358Z,225.00
2019-03-08T07:58:27.358Z,180.00
2019-03-08T07:59:27.358Z,180.00
2019-03-08T08:00:27.303Z,202.50
2019-03-08T08:01:27.306Z,202.50
2019-03-08T08:02:27.366Z,202.50
2019-03-08T08:03:27.365Z,180.00
2019-03-08T08:04:27.299Z,180.00
2019-03-08T08:05:27.362Z,225.00
2019-03-08T08:06:27.309Z,202.50
2019-03-08T08:07:27.368Z,180.00
2019-03-08T08:08:27.306Z,180.00
2019-03-08T08:09:27.331Z,180.00
2019-03-08T08:10:27.302Z,225.00
2019-03-08T08:11:27.344Z,157.50
2019-03-08T08:12:27.300Z,247.50
2019-03-08T08:13:27.330Z,180.00
2019-03-08T08:14:27.312Z,225.00
2019-03-08T08:15:27.348Z,225.00
2019-03-08T08:16:27.313Z,202.50
2019-03-08T08:17:27.306Z,247.50
2019-03-08T08:18:27.265Z,225.00
2019-03-08T08:19:27.362Z,225.00
2019-03-08T08:20:27.249Z,180.00
2019-03-08T08:21:27.269Z,202.50
2019-03-08T08:22:27.316Z,225.00
2019-03-08T08:23:34.030Z,202.50
2019-03-08T08:24:27.242Z,202.50
2019-03-08T08:25:33.942Z,157.50
2019-03-08T08:26:27.301Z,225.00
2019-03-08T08:27:27.367Z,180.00
2019-03-08T08:28:27.277Z,202.50
2019-03-08T08:29:34.741Z,247.50
2019-03-08T08:30:27.382Z,180.00
2019-03-08T08:31:27.382Z,180.00
2019-03-08T08:32:27.312Z,225.00
2019-03-08T08:33:27.340Z,202.50
2019-03-08T08:34:27.316Z,225.00
2019-03-08T08:35:27.320Z,225.00
2019-03-08T08:36:27.322Z,225.00
2019-03-08T08:37:27.390Z,202.50
2019-03-08T08:38:27.317Z,202.50
2019-03-08T08:39:27.326Z,202.50
2019-03-08T08:40:27.359Z,180.00
2019-03-08T08:41:27.404Z,202.50
2019-03-08T08:42:27.391Z,202.50
2019-03-08T08:43:27.330Z,202.50
2019-03-08T08:44:27.391Z,225.00
2019-03-08T08:45:27.367Z,225.00
2019-03-08T08:46:27.395Z,247.50
2019-03-08T08:47:27.280Z,247.50
2019-03-08T08:48:27.355Z,247.50
2019-03-08T08:49:27.240Z,225.00
2019-03-08T08:50:27.260Z,225.00
2019-03-08T08:51:27.297Z,247.50
2019-03-08T08:52:27.369Z,202.50
2019-03-08T08:53:27.353Z,247.50
2019-03-08T08:54:27.361Z,180.00
2019-03-08T08:55:27.260Z,225.00
2019-03-08T08:56:27.307Z,247.50
2019-03-08T08:57:27.337Z,225.00
2019-03-08T08:58:27.324Z,225.00
2019-03-08T08:59:27.402Z,247.50
2019-03-08T09:00:27.340Z,247.50
2019-03-08T09:01:27.404Z,247.50
2019-03-08T09:02:27.344Z,270.00
2019-03-08T09:03:27.414Z,270.00
2019-03-08T09:04:27.340Z,247.50
2019-03-08T09:05:27.404Z,202.50
2019-03-08T09:06:27.389Z,247.50
2019-03-08T09:07:27.347Z,202.50
2019-03-08T09:08:27.340Z,180.00
2019-03-08T09:09:27.413Z,225.00
2019-03-08T09:10:27.340Z,202.50
2019-03-08T09:11:27.415Z,270.00
2019-03-08T09:12:27.416Z,202.50
2019-03-08T09:13:27.425Z,225.00
2019-03-08T09:14:27.305Z,202.50
2019-03-08T09:15:27.363Z,180.00
2019-03-08T09:16:27.346Z,202.50
2019-03-08T09:17:27.417Z,270.00
2019-03-08T09:18:27.356Z,270.00
2019-03-08T09:19:27.365Z,202.50
2019-03-08T09:20:27.259Z,247.50
2019-03-08T09:21:27.245Z,225.00
2019-03-08T09:22:27.370Z,225.00
2019-03-08T09:23:27.399Z,247.50
2019-03-08T09:24:27.281Z,270.00
2019-03-08T09:25:27.313Z,247.50
2019-03-08T09:26:27.371Z,247.50
2019-03-08T09:27:27.390Z,270.00
2019-03-08T09:28:27.344Z,270.00
2019-03-08T09:29:27.414Z,270.00
2019-03-08T09:30:27.372Z,202.50
2019-03-08T09:31:27.385Z,247.50
2019-03-08T09:32:27.301Z,202.50
2019-03-08T09:33:27.295Z,202.50
2019-03-08T09:34:27.383Z,247.50
2019-03-08T09:35:27.331Z,180.00
2019-03-08T09:36:27.421Z,225.00
2019-03-08T09:37:27.423Z,180.00
2019-03-08T09:38:27.405Z,180.00
2019-03-08T09:39:27.423Z,270.00
2019-03-08T09:40:27.426Z,225.00
2019-03-08T09:41:27.422Z,202.50
2019-03-08T09:42:27.389Z,247.50
2019-03-08T09:43:27.338Z,247.50
2019-03-08T09:44:27.352Z,225.00
2019-03-08T09:45:27.398Z,270.00
2019-03-08T09:46:27.356Z,202.50
2019-03-08T09:47:27.357Z,202.50
2019-03-08T09:48:27.395Z,180.00
2019-03-08T09:49:27.387Z,202.50
2019-03-08T09:50:27.345Z,247.50
2019-03-08T09:51:27.284Z,247.50
2019-03-08T09:52:27.363Z,202.50
2019-03-08T09:53:27.358Z,247.50
2019-03-08T09:54:27.348Z,225.00
2019-03-08T09:55:27.262Z,247.50
2019-03-08T09:56:27.326Z,225.00
2019-03-08T09:57:27.314Z,247.50
2019-03-08T09:58:27.275Z,270.00
2019-03-08T09:59:27.616Z,247.50
2019-03-08T10:00:27.448Z,270.00
2019-03-08T10:01:27.385Z,225.00
2019-03-08T10:02:27.380Z,225.00
2019-03-08T10:03:27.456Z,180.00
2019-03-08T10:04:27.451Z,225.00
2019-03-08T10:05:27.411Z,247.50
2019-03-08T10:06:27.447Z,225.00
2019-03-08T10:07:27.380Z,180.00
2019-03-08T10:08:27.482Z,225.00
2019-03-08T10:09:27.452Z,180.00
2019-03-08T10:10:27.386Z,225.00
2019-03-08T10:11:27.388Z,247.50
2019-03-08T10:12:29.319Z,225.00
2019-03-08T10:13:27.485Z,180.00
2019-03-08T10:14:27.454Z,202.50
2019-03-08T10:15:27.483Z,225.00
2019-03-08T10:16:27.392Z,225.00
2019-03-08T10:17:27.459Z,225.00
2019-03-08T10:18:27.467Z,247.50
2019-03-08T10:19:27.376Z,225.00
2019-03-08T10:20:27.306Z,270.00
2019-03-08T10:21:27.412Z,247.50
2019-03-08T10:22:27.323Z,225.00
2019-03-08T10:23:27.488Z,247.50
2019-03-08T10:24:27.362Z,270.00
2019-03-08T10:25:27.350Z,247.50
2019-03-08T10:26:27.325Z,270.00
2019-03-08T10:27:27.426Z,225.00
2019-03-08T10:28:27.435Z,247.50
2019-03-08T10:29:27.405Z,247.50
2019-03-08T10:30:27.469Z,247.50
2019-03-08T10:31:27.448Z,225.00
2019-03-08T10:32:36.873Z,292.50
2019-03-08T10:33:27.409Z,270.00
2019-03-08T10:34:27.402Z,270.00
2019-03-08T10:35:27.405Z,292.50
2019-03-08T10:36:27.480Z,270.00
2019-03-08T10:37:27.414Z,270.00
2019-03-08T10:38:27.534Z,292.50
2019-03-08T10:39:27.457Z,270.00
2019-03-08T10:40:27.379Z,270.00
2019-03-08T10:41:27.470Z,270.00
2019-03-08T10:42:27.394Z,292.50
2019-03-08T10:43:27.396Z,247.50
2019-03-08T10:44:27.472Z,270.00
2019-03-08T10:45:27.431Z,270.00
2019-03-08T10:46:27.471Z,270.00
2019-03-08T10:47:27.406Z,270.00
2019-03-08T10:48:27.472Z,270.00
2019-03-08T10:49:27.463Z,270.00
2019-03-08T10:50:27.382Z,270.00
2019-03-08T10:51:27.348Z,292.50
2019-03-08T10:52:27.380Z,270.00
2019-03-08T10:53:27.462Z,247.50
2019-03-08T10:54:27.366Z,247.50
2019-03-08T10:55:27.469Z,270.00
2019-03-08T10:56:27.390Z,270.00
2019-03-08T10:57:27.387Z,270.00
2019-03-08T10:58:27.429Z,270.00
2019-03-08T10:59:27.497Z,270.00
2019-03-08T11:00:27.423Z,292.50
2019-03-08T11:01:27.420Z,247.50
2019-03-08T11:02:27.427Z,270.00
2019-03-08T11:03:27.496Z,247.50
2019-03-08T11:04:27.496Z,270.00
2019-03-08T11:05:27.427Z,270.00
2019-03-08T11:06:27.423Z,270.00
2019-03-08T11:07:27.445Z,247.50
2019-03-08T11:08:30.087Z,270.00
2019-03-08T11:09:27.497Z,270.00
2019-03-08T11:10:27.427Z,270.00
2019-03-08T11:11:27.467Z,292.50
2019-03-08T11:12:27.403Z,292.50
2019-03-08T11:13:27.496Z,292.50
2019-03-08T11:14:27.430Z,270.00
2019-03-08T11:15:27.503Z,270.00
2019-03-08T11:16:27.431Z,270.00
2019-03-08T11:17:27.657Z,270.00
2019-03-08T11:18:27.437Z,247.50
2019-03-08T11:19:27.730Z,270.00
2019-03-08T11:20:27.496Z,270.00
2019-03-08T11:21:27.499Z,292.50
2019-03-08T11:22:27.452Z,270.00
2019-03-08T11:23:27.436Z,270.00
2019-03-08T11:24:27.423Z,270.00
2019-03-08T11:25:34.761Z,270.00
2019-03-08T11:26:27.496Z,270.00
2019-03-08T11:27:27.502Z,270.00
2019-03-08T11:28:27.472Z,247.50
2019-03-08T11:29:27.471Z,270.00
2019-03-08T11:30:27.465Z,270.00
2019-03-08T11:31:27.431Z,270.00
2019-03-08T11:32:27.404Z,270.00
2019-03-08T11:33:27.510Z,270.00
2019-03-08T11:34:27.502Z,292.50
2019-03-08T11:35:27.509Z,270.00
2019-03-08T11:36:27.468Z,270.00
2019-03-08T11:37:27.942Z,292.50
2019-03-08T11:38:27.485Z,225.00
2019-03-08T11:39:27.416Z,247.50
2019-03-08T11:40:27.512Z,202.50
2019-03-08T11:41:27.471Z,247.50
2019-03-08T11:42:27.506Z,292.50
2019-03-08T11:43:27.508Z,270.00
2019-03-08T11:44:27.509Z,247.50
2019-03-08T11:45:27.449Z,135.00
2019-03-08T11:46:27.477Z,247.50
2019-03-08T11:47:27.510Z,180.00
2019-03-08T11:48:27.439Z,247.50
2019-03-08T11:49:27.447Z,270.00
2019-03-08T11:50:27.525Z,247.50
2019-03-08T11:51:27.467Z,247.50
2019-03-08T11:52:27.459Z,247.50
2019-03-08T11:53:27.599Z,247.50
2019-03-08T11:54:29.601Z,247.50
2019-03-08T11:55:27.494Z,247.50
2019-03-08T11:56:27.462Z,247.50
2019-03-08T11:57:27.469Z,180.00
2019-03-08T11:58:27.463Z,135.00
2019-03-08T11:59:27.486Z,225.00
2019-03-08T12:00:27.418Z,247.50
2019-03-08T12:01:27.497Z,202.50
2019-03-08T12:02:27.420Z,202.50
2019-03-08T12:03:27.438Z,225.00
2019-03-08T12:04:27.465Z,202.50
2019-03-08T12:05:27.394Z,247.50
2019-03-08T12:06:27.528Z,247.50
2019-03-08T12:07:27.489Z,225.00
2019-03-08T12:08:27.515Z,202.50
2019-03-08T12:09:27.511Z,225.00
2019-03-08T12:10:27.554Z,247.50
2019-03-08T12:11:27.479Z,202.50
2019-03-08T12:12:27.538Z,180.00
2019-03-08T12:13:27.539Z,180.00
2019-03-08T12:14:27.475Z,180.00
2019-03-08T12:15:27.547Z,180.00
2019-03-08T12:16:27.470Z,180.00
2019-03-08T12:17:27.481Z,180.00
2019-03-08T12:18:27.483Z,225.00
2019-03-08T12:19:27.546Z,225.00
2019-03-08T12:20:27.532Z,202.50
2019-03-08T12:21:27.493Z,202.50
2019-03-08T12:22:27.506Z,202.50
2019-03-08T12:23:27.547Z,157.50
2019-03-08T12:24:27.486Z,180.00
2019-03-08T12:25:27.549Z,180.00
2019-03-08T12:26:27.482Z,202.50
2019-03-08T12:27:27.554Z,225.00
2019-03-08T12:28:27.486Z,270.00